sensor_id;sensor_type;location;lat;lon;timestamp;pressure;altitude;pressure_sealevel;temperature;humidity
77778;BME280;66966;-34.746;138.604;2023-03-23T00:02:25;101641.15;;;22.55;35.80
77778;BME280;66966;-34.746;138.604;2023-03-23T00:04:49;101640.78;;;23.13;35.14
77778;BME280;66966;-34.746;138.604;2023-03-23T00:07:13;101644.43;;;23.23;34.67
77778;BME280;66966;-34.746;138.604;2023-03-23T00:09:39;101641.88;;;23.02;34.59
77778;BME280;66966;-34.746;138.604;2023-03-23T00:12:04;101649.33;;;22.94;34.43
77778;BME280;66966;-34.746;138.604;2023-03-23T00:14:32;101650.24;;;23.29;34.26
77778;BME280;66966;-34.746;138.604;2023-03-23T00:16:56;101648.04;;;23.35;34.11
77778;BME280;66966;-34.746;138.604;2023-03-23T00:19:20;101646.14;;;23.43;34.44
77778;BME280;66966;-34.746;138.604;2023-03-23T00:21:46;101642.90;;;23.45;34.54
77778;BME280;66966;-34.746;138.604;2023-03-23T00:24:13;101642.03;;;23.41;34.62
77778;BME280;66966;-34.746;138.604;2023-03-23T00:26:38;101642.42;;;23.88;34.82
77778;BME280;66966;-34.746;138.604;2023-03-23T00:29:03;101643.32;;;24.11;35.72
77778;BME280;66966;-34.746;138.604;2023-03-23T00:31:28;101646.67;;;23.89;36.28
77778;BME280;66966;-34.746;138.604;2023-03-23T00:33:52;101649.00;;;23.75;36.11
77778;BME280;66966;-34.746;138.604;2023-03-23T00:36:18;101650.47;;;23.66;36.11
77778;BME280;66966;-34.746;138.604;2023-03-23T00:38:43;101652.14;;;23.94;36.13
77778;BME280;66966;-34.746;138.604;2023-03-23T00:41:09;101647.85;;;23.98;35.90
77778;BME280;66966;-34.746;138.604;2023-03-23T00:43:34;101651.26;;;23.63;36.16
77778;BME280;66966;-34.746;138.604;2023-03-23T00:45:59;101646.84;;;23.65;36.69
77778;BME280;66966;-34.746;138.604;2023-03-23T00:48:25;101649.16;;;23.68;37.11
77778;BME280;66966;-34.746;138.604;2023-03-23T00:50:50;101645.09;;;23.80;37.30
77778;BME280;66966;-34.746;138.604;2023-03-23T00:53:16;101641.72;;;23.45;36.90
77778;BME280;66966;-34.746;138.604;2023-03-23T00:55:41;101640.45;;;23.86;36.53
77778;BME280;66966;-34.746;138.604;2023-03-23T00:58:05;101641.90;;;23.91;36.64
77778;BME280;66966;-34.746;138.604;2023-03-23T01:00:30;101642.79;;;24.31;36.46
77778;BME280;66966;-34.746;138.604;2023-03-23T01:02:56;101643.64;;;24.08;36.08
77778;BME280;66966;-34.746;138.604;2023-03-23T01:05:21;101641.61;;;24.25;36.14
77778;BME280;66966;-34.746;138.604;2023-03-23T01:07:46;101644.18;;;23.81;35.81
77778;BME280;66966;-34.746;138.604;2023-03-23T01:10:14;101647.59;;;24.33;35.51
77778;BME280;66966;-34.746;138.604;2023-03-23T01:12:37;101650.70;;;24.32;35.33
77778;BME280;66966;-34.746;138.604;2023-03-23T01:15:02;101647.14;;;24.42;35.08
77778;BME280;66966;-34.746;138.604;2023-03-23T01:17:28;101645.81;;;24.14;35.00
77778;BME280;66966;-34.746;138.604;2023-03-23T01:19:53;101645.67;;;24.14;34.83
77778;BME280;66966;-34.746;138.604;2023-03-23T01:22:19;101648.64;;;24.34;35.23
77778;BME280;66966;-34.746;138.604;2023-03-23T01:24:45;101649.74;;;24.10;35.38
77778;BME280;66966;-34.746;138.604;2023-03-23T01:27:10;101649.91;;;24.34;34.73
77778;BME280;66966;-34.746;138.604;2023-03-23T01:29:36;101650.68;;;24.21;34.88
77778;BME280;66966;-34.746;138.604;2023-03-23T01:32:00;101649.14;;;24.58;34.78
77778;BME280;66966;-34.746;138.604;2023-03-23T01:34:26;101651.34;;;24.35;34.33
77778;BME280;66966;-34.746;138.604;2023-03-23T01:36:51;101659.26;;;24.59;34.12
77778;BME280;66966;-34.746;138.604;2023-03-23T01:39:16;101661.02;;;24.19;34.42
77778;BME280;66966;-34.746;138.604;2023-03-23T01:41:42;101664.16;;;24.39;33.82
77778;BME280;66966;-34.746;138.604;2023-03-23T01:46:34;101670.33;;;24.40;34.12
77778;BME280;66966;-34.746;138.604;2023-03-23T01:49:03;101664.21;;;24.39;34.35
77778;BME280;66966;-34.746;138.604;2023-03-23T01:51:23;101665.51;;;24.57;34.64
77778;BME280;66966;-34.746;138.604;2023-03-23T01:53:53;101662.26;;;24.33;34.75
77778;BME280;66966;-34.746;138.604;2023-03-23T01:56:15;101669.29;;;24.88;34.81
77778;BME280;66966;-34.746;138.604;2023-03-23T01:58:40;101668.02;;;24.49;34.82
77778;BME280;66966;-34.746;138.604;2023-03-23T02:01:07;101666.30;;;24.44;35.31
77778;BME280;66966;-34.746;138.604;2023-03-23T02:03:31;101663.59;;;24.30;35.08
77778;BME280;66966;-34.746;138.604;2023-03-23T02:05:56;101663.86;;;24.05;35.02
77778;BME280;66966;-34.746;138.604;2023-03-23T02:08:20;101663.41;;;24.26;35.21
77778;BME280;66966;-34.746;138.604;2023-03-23T02:10:46;101668.02;;;24.14;35.17
77778;BME280;66966;-34.746;138.604;2023-03-23T02:13:12;101666.39;;;24.31;35.06
77778;BME280;66966;-34.746;138.604;2023-03-23T02:15:45;101668.21;;;24.26;35.20
77778;BME280;66966;-34.746;138.604;2023-03-23T02:18:08;101665.77;;;24.33;34.69
77778;BME280;66966;-34.746;138.604;2023-03-23T02:20:34;101658.50;;;24.63;34.27
77778;BME280;66966;-34.746;138.604;2023-03-23T02:23:06;101654.42;;;24.78;33.76
77778;BME280;66966;-34.746;138.604;2023-03-23T02:35:01;101652.20;;;25.37;32.85
77778;BME280;66966;-34.746;138.604;2023-03-23T02:37:27;101650.27;;;25.19;32.71
77778;BME280;66966;-34.746;138.604;2023-03-23T02:39:51;101649.25;;;24.95;33.35
77778;BME280;66966;-34.746;138.604;2023-03-23T02:42:18;101650.26;;;24.74;33.47
77778;BME280;66966;-34.746;138.604;2023-03-23T02:44:42;101647.15;;;25.05;33.00
77778;BME280;66966;-34.746;138.604;2023-03-23T02:47:08;101648.16;;;25.05;32.76
77778;BME280;66966;-34.746;138.604;2023-03-23T02:49:32;101645.64;;;25.11;32.67
77778;BME280;66966;-34.746;138.604;2023-03-23T02:51:57;101643.16;;;24.97;32.74
77778;BME280;66966;-34.746;138.604;2023-03-23T02:54:21;101643.71;;;25.27;32.84
77778;BME280;66966;-34.746;138.604;2023-03-23T02:56:46;101643.76;;;25.41;33.07
77778;BME280;66966;-34.746;138.604;2023-03-23T02:59:11;101645.86;;;25.37;32.53
77778;BME280;66966;-34.746;138.604;2023-03-23T03:04:06;101637.86;;;25.05;32.96
77778;BME280;66966;-34.746;138.604;2023-03-23T03:06:32;101638.23;;;25.38;32.75
77778;BME280;66966;-34.746;138.604;2023-03-23T03:08:56;101631.62;;;25.38;32.50
77778;BME280;66966;-34.746;138.604;2023-03-23T03:11:18;101633.47;;;25.04;32.71
77778;BME280;66966;-34.746;138.604;2023-03-23T03:13:47;101632.41;;;25.13;33.00
77778;BME280;66966;-34.746;138.604;2023-03-23T03:16:12;101641.05;;;25.18;32.43
77778;BME280;66966;-34.746;138.604;2023-03-23T03:18:37;101636.40;;;25.22;32.18
77778;BME280;66966;-34.746;138.604;2023-03-23T03:21:02;101638.21;;;25.12;32.09
77778;BME280;66966;-34.746;138.604;2023-03-23T03:23:24;101637.59;;;25.12;32.61
77778;BME280;66966;-34.746;138.604;2023-03-23T03:25:49;101632.29;;;25.24;32.67
77778;BME280;66966;-34.746;138.604;2023-03-23T03:28:16;101633.55;;;25.16;33.18
77778;BME280;66966;-34.746;138.604;2023-03-23T03:30:41;101629.02;;;25.36;33.05
77778;BME280;66966;-34.746;138.604;2023-03-23T03:33:05;101627.08;;;25.42;32.52
77778;BME280;66966;-34.746;138.604;2023-03-23T03:35:31;101631.46;;;25.42;32.27
77778;BME280;66966;-34.746;138.604;2023-03-23T03:37:56;101628.06;;;26.05;32.13
77778;BME280;66966;-34.746;138.604;2023-03-23T03:40:22;101629.73;;;25.98;32.08
77778;BME280;66966;-34.746;138.604;2023-03-23T03:42:47;101634.50;;;25.77;31.81
77778;BME280;66966;-34.746;138.604;2023-03-23T03:45:16;101631.74;;;25.73;31.81
77778;BME280;66966;-34.746;138.604;2023-03-23T03:47:37;101627.70;;;25.69;31.41
77778;BME280;66966;-34.746;138.604;2023-03-23T03:50:03;101627.48;;;25.97;31.51
77778;BME280;66966;-34.746;138.604;2023-03-23T03:52:28;101629.08;;;25.69;31.48
77778;BME280;66966;-34.746;138.604;2023-03-23T03:54:53;101623.03;;;25.72;31.55
77778;BME280;66966;-34.746;138.604;2023-03-23T03:57:18;101618.55;;;25.56;31.85
77778;BME280;66966;-34.746;138.604;2023-03-23T03:59:43;101613.54;;;26.21;31.51
77778;BME280;66966;-34.746;138.604;2023-03-23T04:02:09;101614.04;;;26.03;31.23
77778;BME280;66966;-34.746;138.604;2023-03-23T04:04:34;101618.44;;;26.12;30.92
77778;BME280;66966;-34.746;138.604;2023-03-23T04:06:59;101620.67;;;26.45;30.33
77778;BME280;66966;-34.746;138.604;2023-03-23T04:09:24;101617.64;;;26.19;30.75
77778;BME280;66966;-34.746;138.604;2023-03-23T04:11:49;101611.99;;;25.82;31.02
77778;BME280;66966;-34.746;138.604;2023-03-23T04:14:15;101606.34;;;25.68;30.92
77778;BME280;66966;-34.746;138.604;2023-03-23T04:16:40;101608.57;;;26.16;31.04
77778;BME280;66966;-34.746;138.604;2023-03-23T04:19:06;101605.49;;;26.03;30.63
77778;BME280;66966;-34.746;138.604;2023-03-23T04:21:31;101605.33;;;26.36;30.82
77778;BME280;66966;-34.746;138.604;2023-03-23T04:23:56;101605.24;;;26.36;30.20
77778;BME280;66966;-34.746;138.604;2023-03-23T04:26:21;101604.58;;;26.95;29.23
77778;BME280;66966;-34.746;138.604;2023-03-23T04:28:47;101606.16;;;26.61;29.08
77778;BME280;66966;-34.746;138.604;2023-03-23T04:31:12;101611.21;;;26.86;29.62
77778;BME280;66966;-34.746;138.604;2023-03-23T04:33:37;101614.81;;;26.81;29.45
77778;BME280;66966;-34.746;138.604;2023-03-23T04:36:03;101612.34;;;26.64;29.89
77778;BME280;66966;-34.746;138.604;2023-03-23T04:38:28;101609.25;;;26.60;29.74
77778;BME280;66966;-34.746;138.604;2023-03-23T04:40:54;101600.96;;;26.95;29.13
77778;BME280;66966;-34.746;138.604;2023-03-23T04:43:20;101596.78;;;27.22;29.04
77778;BME280;66966;-34.746;138.604;2023-03-23T04:45:44;101590.23;;;27.31;28.66
77778;BME280;66966;-34.746;138.604;2023-03-23T04:48:09;101595.30;;;26.96;28.92
77778;BME280;66966;-34.746;138.604;2023-03-23T04:50:35;101598.15;;;26.98;28.67
77778;BME280;66966;-34.746;138.604;2023-03-23T04:53:01;101598.01;;;27.07;28.60
77778;BME280;66966;-34.746;138.604;2023-03-23T04:55:26;101599.16;;;26.95;28.75
77778;BME280;66966;-34.746;138.604;2023-03-23T04:57:50;101596.77;;;26.84;29.08
77778;BME280;66966;-34.746;138.604;2023-03-23T05:00:16;101596.62;;;26.50;29.09
77778;BME280;66966;-34.746;138.604;2023-03-23T05:02:41;101598.64;;;26.91;29.46
77778;BME280;66966;-34.746;138.604;2023-03-23T05:05:07;101595.18;;;26.75;28.99
77778;BME280;66966;-34.746;138.604;2023-03-23T05:07:32;101593.51;;;26.65;28.93
77778;BME280;66966;-34.746;138.604;2023-03-23T05:09:56;101589.46;;;26.58;28.90
77778;BME280;66966;-34.746;138.604;2023-03-23T05:12:22;101590.81;;;26.59;29.02
77778;BME280;66966;-34.746;138.604;2023-03-23T05:14:47;101594.04;;;26.47;28.89
77778;BME280;66966;-34.746;138.604;2023-03-23T05:17:13;101592.69;;;26.84;28.80
77778;BME280;66966;-34.746;138.604;2023-03-23T05:19:38;101594.05;;;26.31;28.97
77778;BME280;66966;-34.746;138.604;2023-03-23T05:22:03;101596.78;;;26.35;29.06
77778;BME280;66966;-34.746;138.604;2023-03-23T05:24:28;101596.60;;;26.84;28.99
77778;BME280;66966;-34.746;138.604;2023-03-23T05:26:53;101598.53;;;26.73;27.95
77778;BME280;66966;-34.746;138.604;2023-03-23T05:29:18;101600.67;;;26.44;28.06
77778;BME280;66966;-34.746;138.604;2023-03-23T05:31:44;101600.95;;;26.46;28.05
77778;BME280;66966;-34.746;138.604;2023-03-23T05:34:08;101597.20;;;26.77;28.01
77778;BME280;66966;-34.746;138.604;2023-03-23T05:36:34;101592.62;;;26.54;28.09
77778;BME280;66966;-34.746;138.604;2023-03-23T05:38:59;101593.31;;;26.50;28.18
77778;BME280;66966;-34.746;138.604;2023-03-23T05:41:24;101598.94;;;26.64;28.13
77778;BME280;66966;-34.746;138.604;2023-03-23T05:43:50;101598.44;;;26.68;27.95
77778;BME280;66966;-34.746;138.604;2023-03-23T05:46:14;101599.50;;;26.78;27.86
77778;BME280;66966;-34.746;138.604;2023-03-23T05:48:40;101595.62;;;26.96;27.87
77778;BME280;66966;-34.746;138.604;2023-03-23T05:51:05;101594.74;;;26.92;27.48
77778;BME280;66966;-34.746;138.604;2023-03-23T05:53:30;101601.69;;;27.43;27.12
77778;BME280;66966;-34.746;138.604;2023-03-23T05:55:59;101591.45;;;27.80;26.87
77778;BME280;66966;-34.746;138.604;2023-03-23T05:58:20;101591.20;;;27.19;27.03
77778;BME280;66966;-34.746;138.604;2023-03-23T06:00:46;101591.55;;;27.57;27.08
77778;BME280;66966;-34.746;138.604;2023-03-23T06:03:11;101590.18;;;27.82;26.78
77778;BME280;66966;-34.746;138.604;2023-03-23T06:05:36;101586.83;;;27.74;26.53
77778;BME280;66966;-34.746;138.604;2023-03-23T06:08:02;101586.61;;;27.48;26.47
77778;BME280;66966;-34.746;138.604;2023-03-23T06:10:27;101581.92;;;27.53;26.84
77778;BME280;66966;-34.746;138.604;2023-03-23T06:12:52;101577.59;;;27.27;26.95
77778;BME280;66966;-34.746;138.604;2023-03-23T06:15:17;101580.42;;;26.83;27.37
77778;BME280;66966;-34.746;138.604;2023-03-23T06:17:42;101585.51;;;27.20;27.43
77778;BME280;66966;-34.746;138.604;2023-03-23T06:20:08;101586.80;;;27.54;26.58
77778;BME280;66966;-34.746;138.604;2023-03-23T06:22:32;101581.19;;;27.54;26.76
77778;BME280;66966;-34.746;138.604;2023-03-23T06:24:57;101584.40;;;27.52;26.55
77778;BME280;66966;-34.746;138.604;2023-03-23T06:27:23;101579.90;;;27.72;26.56
77778;BME280;66966;-34.746;138.604;2023-03-23T06:29:48;101577.15;;;28.06;25.99
77778;BME280;66966;-34.746;138.604;2023-03-23T06:32:14;101577.53;;;27.89;25.96
77778;BME280;66966;-34.746;138.604;2023-03-23T06:34:38;101570.62;;;28.11;25.75
77778;BME280;66966;-34.746;138.604;2023-03-23T06:37:03;101571.09;;;27.89;25.61
77778;BME280;66966;-34.746;138.604;2023-03-23T06:39:29;101572.42;;;27.86;25.48
77778;BME280;66966;-34.746;138.604;2023-03-23T06:41:54;101569.73;;;27.82;25.54
77778;BME280;66966;-34.746;138.604;2023-03-23T06:44:19;101573.01;;;27.85;25.70
77778;BME280;66966;-34.746;138.604;2023-03-23T06:46:44;101574.70;;;28.04;25.42
77778;BME280;66966;-34.746;138.604;2023-03-23T06:49:10;101576.06;;;28.62;24.84
77778;BME280;66966;-34.746;138.604;2023-03-23T06:51:35;101577.94;;;28.63;24.79
77778;BME280;66966;-34.746;138.604;2023-03-23T06:54:00;101570.28;;;28.49;24.69
77778;BME280;66966;-34.746;138.604;2023-03-23T06:56:26;101570.13;;;28.40;24.17
77778;BME280;66966;-34.746;138.604;2023-03-23T06:58:50;101568.36;;;28.19;24.70
77778;BME280;66966;-34.746;138.604;2023-03-23T07:01:15;101571.00;;;27.95;24.62
77778;BME280;66966;-34.746;138.604;2023-03-23T07:03:40;101574.30;;;27.91;24.66
77778;BME280;66966;-34.746;138.604;2023-03-23T07:06:06;101574.79;;;27.91;24.67
77778;BME280;66966;-34.746;138.604;2023-03-23T07:08:31;101572.84;;;27.97;24.38
77778;BME280;66966;-34.746;138.604;2023-03-23T07:10:56;101571.13;;;28.11;24.41
77778;BME280;66966;-34.746;138.604;2023-03-23T07:13:21;101569.75;;;27.74;24.68
77778;BME280;66966;-34.746;138.604;2023-03-23T07:15:46;101572.19;;;28.00;24.50
77778;BME280;66966;-34.746;138.604;2023-03-23T07:18:12;101577.42;;;27.97;24.18
77778;BME280;66966;-34.746;138.604;2023-03-23T07:20:37;101580.98;;;27.99;24.46
77778;BME280;66966;-34.746;138.604;2023-03-23T07:23:01;101577.92;;;28.05;24.22
77778;BME280;66966;-34.746;138.604;2023-03-23T07:25:27;101581.77;;;28.10;24.07
77778;BME280;66966;-34.746;138.604;2023-03-23T07:27:52;101580.21;;;28.15;24.19
77778;BME280;66966;-34.746;138.604;2023-03-23T07:30:17;101587.75;;;27.92;23.81
77778;BME280;66966;-34.746;138.604;2023-03-23T07:32:43;101585.82;;;27.92;24.00
77778;BME280;66966;-34.746;138.604;2023-03-23T07:35:08;101588.25;;;27.79;23.96
77778;BME280;66966;-34.746;138.604;2023-03-23T07:37:33;101582.57;;;27.89;24.40
77778;BME280;66966;-34.746;138.604;2023-03-23T07:39:57;101581.70;;;27.46;24.67
77778;BME280;66966;-34.746;138.604;2023-03-23T07:42:23;101587.89;;;27.26;24.82
77778;BME280;66966;-34.746;138.604;2023-03-23T07:44:48;101592.69;;;26.66;25.01
77778;BME280;66966;-34.746;138.604;2023-03-23T07:47:13;101594.00;;;26.74;25.11
77778;BME280;66966;-34.746;138.604;2023-03-23T07:49:38;101594.33;;;26.28;25.60
77778;BME280;66966;-34.746;138.604;2023-03-23T07:52:04;101590.07;;;26.37;26.09
77778;BME280;66966;-34.746;138.604;2023-03-23T07:54:29;101592.18;;;26.27;26.30
77778;BME280;66966;-34.746;138.604;2023-03-23T07:56:54;101585.57;;;25.97;26.17
77778;BME280;66966;-34.746;138.604;2023-03-23T07:59:19;101588.50;;;25.81;26.24
77778;BME280;66966;-34.746;138.604;2023-03-23T08:01:44;101591.95;;;25.65;26.19
77778;BME280;66966;-34.746;138.604;2023-03-23T08:04:09;101598.02;;;25.62;26.51
77778;BME280;66966;-34.746;138.604;2023-03-23T08:06:35;101601.53;;;25.26;26.71
77778;BME280;66966;-34.746;138.604;2023-03-23T08:09:01;101599.74;;;25.82;26.77
77778;BME280;66966;-34.746;138.604;2023-03-23T08:11:25;101602.28;;;25.65;27.12
77778;BME280;66966;-34.746;138.604;2023-03-23T08:13:50;101606.23;;;25.55;27.22
77778;BME280;66966;-34.746;138.604;2023-03-23T08:16:16;101609.93;;;24.95;27.61
77778;BME280;66966;-34.746;138.604;2023-03-23T08:18:41;101609.37;;;25.46;27.78
77778;BME280;66966;-34.746;138.604;2023-03-23T08:21:07;101613.17;;;25.55;27.90
77778;BME280;66966;-34.746;138.604;2023-03-23T08:23:32;101619.32;;;25.16;27.75
77778;BME280;66966;-34.746;138.604;2023-03-23T08:25:57;101624.63;;;25.23;28.03
77778;BME280;66966;-34.746;138.604;2023-03-23T08:28:22;101628.81;;;25.05;28.22
77778;BME280;66966;-34.746;138.604;2023-03-23T08:30:48;101632.05;;;25.14;27.97
77778;BME280;66966;-34.746;138.604;2023-03-23T08:33:13;101630.43;;;25.22;28.29
77778;BME280;66966;-34.746;138.604;2023-03-23T08:35:38;101631.97;;;24.84;28.56
77778;BME280;66966;-34.746;138.604;2023-03-23T08:38:03;101635.24;;;24.69;28.87
77778;BME280;66966;-34.746;138.604;2023-03-23T08:40:28;101636.03;;;24.89;29.03
77778;BME280;66966;-34.746;138.604;2023-03-23T08:42:54;101639.93;;;24.79;29.33
77778;BME280;66966;-34.746;138.604;2023-03-23T08:45:22;101638.11;;;24.49;29.62
77778;BME280;66966;-34.746;138.604;2023-03-23T08:47:45;101635.27;;;24.43;29.54
77778;BME280;66966;-34.746;138.604;2023-03-23T08:50:15;101644.29;;;24.43;29.96
77778;BME280;66966;-34.746;138.604;2023-03-23T08:52:35;101653.89;;;24.16;30.10
77778;BME280;66966;-34.746;138.604;2023-03-23T08:55:00;101657.22;;;24.28;30.35
77778;BME280;66966;-34.746;138.604;2023-03-23T08:57:26;101656.80;;;24.00;30.48
77778;BME280;66966;-34.746;138.604;2023-03-23T08:59:51;101653.60;;;24.12;30.67
77778;BME280;66966;-34.746;138.604;2023-03-23T09:02:16;101655.16;;;23.86;30.81
77778;BME280;66966;-34.746;138.604;2023-03-23T09:04:42;101655.73;;;23.93;31.09
77778;BME280;66966;-34.746;138.604;2023-03-23T09:07:07;101647.32;;;24.15;31.26
77778;BME280;66966;-34.746;138.604;2023-03-23T09:09:32;101643.86;;;24.21;31.25
77778;BME280;66966;-34.746;138.604;2023-03-23T09:11:57;101643.79;;;24.23;31.28
77778;BME280;66966;-34.746;138.604;2023-03-23T09:14:23;101649.30;;;24.03;31.35
77778;BME280;66966;-34.746;138.604;2023-03-23T09:16:48;101650.05;;;24.01;31.47
77778;BME280;66966;-34.746;138.604;2023-03-23T09:19:13;101648.16;;;23.77;31.55
77778;BME280;66966;-34.746;138.604;2023-03-23T09:21:39;101650.66;;;23.80;31.52
77778;BME280;66966;-34.746;138.604;2023-03-23T09:24:04;101662.43;;;24.17;31.69
77778;BME280;66966;-34.746;138.604;2023-03-23T09:26:29;101671.53;;;23.64;31.85
77778;BME280;66966;-34.746;138.604;2023-03-23T09:28:55;101682.59;;;23.85;31.89
77778;BME280;66966;-34.746;138.604;2023-03-23T09:31:20;101682.15;;;24.13;31.77
77778;BME280;66966;-34.746;138.604;2023-03-23T09:33:45;101679.68;;;23.89;31.86
77778;BME280;66966;-34.746;138.604;2023-03-23T09:36:10;101680.61;;;23.84;31.93
77778;BME280;66966;-34.746;138.604;2023-03-23T09:38:36;101673.03;;;23.83;31.96
77778;BME280;66966;-34.746;138.604;2023-03-23T09:41:07;101663.22;;;23.58;32.19
77778;BME280;66966;-34.746;138.604;2023-03-23T09:46:00;101677.99;;;23.78;32.34
77778;BME280;66966;-34.746;138.604;2023-03-23T09:48:31;101690.11;;;23.57;32.52
77778;BME280;66966;-34.746;138.604;2023-03-23T09:50:44;101701.22;;;23.99;32.74
77778;BME280;66966;-34.746;138.604;2023-03-23T09:53:12;101712.50;;;23.92;32.98
77778;BME280;66966;-34.746;138.604;2023-03-23T09:55:35;101718.92;;;23.84;33.24
77778;BME280;66966;-34.746;138.604;2023-03-23T09:58:02;101719.06;;;23.76;33.56
77778;BME280;66966;-34.746;138.604;2023-03-23T10:00:31;101722.72;;;23.65;33.73
77778;BME280;66966;-34.746;138.604;2023-03-23T10:02:57;101727.73;;;23.53;33.89
77778;BME280;66966;-34.746;138.604;2023-03-23T10:07:40;101743.67;;;23.44;33.99
77778;BME280;66966;-34.746;138.604;2023-03-23T10:10:08;101737.09;;;23.41;33.97
77778;BME280;66966;-34.746;138.604;2023-03-23T10:12:36;101733.05;;;23.42;33.92
77778;BME280;66966;-34.746;138.604;2023-03-23T10:15:08;101735.25;;;23.65;33.95
77778;BME280;66966;-34.746;138.604;2023-03-23T10:17:26;101743.41;;;23.39;33.79
77778;BME280;66966;-34.746;138.604;2023-03-23T10:19:51;101745.52;;;23.09;33.94
77778;BME280;66966;-34.746;138.604;2023-03-23T10:22:14;101748.67;;;23.40;34.08
77778;BME280;66966;-34.746;138.604;2023-03-23T10:24:43;101754.24;;;23.12;34.12
77778;BME280;66966;-34.746;138.604;2023-03-23T10:27:16;101751.60;;;22.98;34.33
77778;BME280;66966;-34.746;138.604;2023-03-23T10:29:31;101752.21;;;23.11;34.41
77778;BME280;66966;-34.746;138.604;2023-03-23T10:31:56;101749.55;;;23.25;34.47
77778;BME280;66966;-34.746;138.604;2023-03-23T10:34:23;101752.66;;;22.58;34.69
77778;BME280;66966;-34.746;138.604;2023-03-23T10:36:54;101758.23;;;22.75;34.79
77778;BME280;66966;-34.746;138.604;2023-03-23T10:39:17;101764.23;;;22.67;34.88
77778;BME280;66966;-34.746;138.604;2023-03-23T10:41:35;101767.25;;;22.69;34.79
77778;BME280;66966;-34.746;138.604;2023-03-23T10:44:00;101775.46;;;22.76;34.80
77778;BME280;66966;-34.746;138.604;2023-03-23T10:46:33;101781.31;;;22.65;34.86
77778;BME280;66966;-34.746;138.604;2023-03-23T10:48:52;101784.61;;;22.89;34.97
77778;BME280;66966;-34.746;138.604;2023-03-23T10:51:20;101792.74;;;22.34;35.02
77778;BME280;66966;-34.746;138.604;2023-03-23T10:53:44;101805.32;;;22.77;35.09
77778;BME280;66966;-34.746;138.604;2023-03-23T10:58:35;101816.88;;;22.65;35.24
77778;BME280;66966;-34.746;138.604;2023-03-23T11:00:58;101820.98;;;22.60;35.29
77778;BME280;66966;-34.746;138.604;2023-03-23T11:03:40;101820.34;;;22.24;35.50
77778;BME280;66966;-34.746;138.604;2023-03-23T11:05:52;101820.01;;;22.44;35.86
77778;BME280;66966;-34.746;138.604;2023-03-23T11:08:15;101826.04;;;22.12;35.87
77778;BME280;66966;-34.746;138.604;2023-03-23T11:10:41;101839.55;;;22.35;35.80
77778;BME280;66966;-34.746;138.604;2023-03-23T11:13:04;101846.35;;;22.10;35.60
77778;BME280;66966;-34.746;138.604;2023-03-23T11:15:32;101850.32;;;22.15;35.48
77778;BME280;66966;-34.746;138.604;2023-03-23T11:18:02;101852.18;;;22.14;35.38
77778;BME280;66966;-34.746;138.604;2023-03-23T11:20:21;101851.56;;;21.99;35.18
77778;BME280;66966;-34.746;138.604;2023-03-23T11:22:45;101861.58;;;22.16;35.12
77778;BME280;66966;-34.746;138.604;2023-03-23T11:25:13;101866.36;;;22.07;35.16
77778;BME280;66966;-34.746;138.604;2023-03-23T11:27:37;101866.41;;;22.00;35.22
77778;BME280;66966;-34.746;138.604;2023-03-23T11:30:08;101865.76;;;21.98;35.30
77778;BME280;66966;-34.746;138.604;2023-03-23T11:32:28;101869.31;;;21.91;35.41
77778;BME280;66966;-34.746;138.604;2023-03-23T11:34:56;101870.30;;;21.86;35.47
77778;BME280;66966;-34.746;138.604;2023-03-23T11:37:24;101870.37;;;21.70;35.70
77778;BME280;66966;-34.746;138.604;2023-03-23T11:39:47;101864.02;;;21.53;35.93
77778;BME280;66966;-34.746;138.604;2023-03-23T11:42:13;101860.90;;;21.95;35.98
77778;BME280;66966;-34.746;138.604;2023-03-23T11:44:39;101858.98;;;21.71;35.99
77778;BME280;66966;-34.746;138.604;2023-03-23T11:47:04;101860.75;;;22.04;35.81
77778;BME280;66966;-34.746;138.604;2023-03-23T11:49:35;101862.24;;;21.52;36.12
77778;BME280;66966;-34.746;138.604;2023-03-23T11:51:51;101859.41;;;21.49;36.13
77778;BME280;66966;-34.746;138.604;2023-03-23T11:54:19;101851.03;;;21.65;36.20
77778;BME280;66966;-34.746;138.604;2023-03-23T11:56:43;101843.58;;;21.47;36.12
77778;BME280;66966;-34.746;138.604;2023-03-23T11:59:11;101833.98;;;21.49;36.07
77778;BME280;66966;-34.746;138.604;2023-03-23T12:01:42;101822.16;;;21.19;36.16
77778;BME280;66966;-34.746;138.604;2023-03-23T12:04:21;101821.64;;;21.83;35.81
77778;BME280;66966;-34.746;138.604;2023-03-23T12:06:28;101816.79;;;21.86;35.79
77778;BME280;66966;-34.746;138.604;2023-03-23T12:08:58;101812.21;;;21.71;35.68
77778;BME280;66966;-34.746;138.604;2023-03-23T12:11:19;101813.35;;;21.42;35.71
77778;BME280;66966;-34.746;138.604;2023-03-23T12:13:46;101814.84;;;21.68;35.62
77778;BME280;66966;-34.746;138.604;2023-03-23T12:16:11;101813.16;;;21.46;35.41
77778;BME280;66966;-34.746;138.604;2023-03-23T12:18:37;101808.19;;;21.94;35.19
77778;BME280;66966;-34.746;138.604;2023-03-23T12:21:04;101818.88;;;21.44;35.14
77778;BME280;66966;-34.746;138.604;2023-03-23T12:23:24;101822.19;;;21.38;35.10
77778;BME280;66966;-34.746;138.604;2023-03-23T12:25:58;101827.26;;;21.37;35.00
77778;BME280;66966;-34.746;138.604;2023-03-23T12:28:18;101822.13;;;21.59;34.96
77778;BME280;66966;-34.746;138.604;2023-03-23T12:30:40;101817.27;;;21.61;34.93
77778;BME280;66966;-34.746;138.604;2023-03-23T12:33:13;101815.90;;;21.56;34.90